createdAt,value
2023-02-25T00:00:28.941Z,4.40
2023-02-25T00:02:55.520Z,4.40
2023-02-25T00:05:22.189Z,4.40
2023-02-25T00:07:48.787Z,4.30
2023-02-25T00:10:15.822Z,4.30
2023-02-25T00:12:43.279Z,4.20
2023-02-25T00:15:10.628Z,4.20
2023-02-25T00:17:37.615Z,4.20
2023-02-25T00:20:04.534Z,4.20
2023-02-25T00:22:31.096Z,4.20
2023-02-25T00:24:58.000Z,4.20
2023-02-25T00:27:24.942Z,4.20
2023-02-25T00:29:55.010Z,4.30
2023-02-25T00:32:22.591Z,4.40
2023-02-25T00:34:49.279Z,4.30
2023-02-25T00:37:15.879Z,4.20
2023-02-25T00:39:42.518Z,4.10
2023-02-25T00:42:15.092Z,4.10
2023-02-25T00:44:46.607Z,4.10
2023-02-25T00:47:13.998Z,4.10
2023-02-25T00:49:40.952Z,4.10
2023-02-25T00:52:08.415Z,4.10
2023-02-25T00:54:35.181Z,4.10
2023-02-25T00:57:01.755Z,4.10
2023-02-25T00:59:28.336Z,4.00
2023-02-25T01:01:54.974Z,4.00
2023-02-25T01:04:21.598Z,4.00
2023-02-25T01:06:48.224Z,3.90
2023-02-25T01:09:15.021Z,4.10
2023-02-25T01:11:44.486Z,4.00
2023-02-25T01:14:23.081Z,4.00
2023-02-25T01:16:50.938Z,4.00
2023-02-25T01:19:23.325Z,3.90
2023-02-25T01:21:52.268Z,4.00
2023-02-25T01:24:30.152Z,4.00
2023-02-25T01:26:59.788Z,3.90
2023-02-25T01:29:29.848Z,3.80
2023-02-25T01:31:59.897Z,3.80
2023-02-25T01:34:27.603Z,3.90
2023-02-25T01:36:54.598Z,3.80
2023-02-25T01:39:23.102Z,3.80
2023-02-25T01:41:51.251Z,3.80
2023-02-25T01:44:19.473Z,3.80
2023-02-25T01:46:48.602Z,3.90
2023-02-25T01:49:20.342Z,3.80
2023-02-25T01:51:53.523Z,3.80
2023-02-25T01:54:20.819Z,3.80
2023-02-25T01:56:52.468Z,3.70
2023-02-25T01:59:22.366Z,3.60
2023-02-25T02:01:49.242Z,3.50
2023-02-25T02:04:18.283Z,3.50
2023-02-25T02:06:47.678Z,3.50
2023-02-25T02:09:18.324Z,3.50
2023-02-25T02:11:44.864Z,3.60
2023-02-25T02:14:15.782Z,3.50
2023-02-25T02:16:59.197Z,3.40
2023-02-25T02:19:50.742Z,3.30
2023-02-25T02:22:39.201Z,3.40
2023-02-25T02:25:41.684Z,3.40
2023-02-25T02:28:27.158Z,3.30
2023-02-25T02:30:53.737Z,3.40
2023-02-25T02:33:44.803Z,3.40
2023-02-25T02:36:39.677Z,3.40
2023-02-25T02:39:39.161Z,3.30
2023-02-25T02:42:17.680Z,3.30
2023-02-25T02:44:57.808Z,3.30
2023-02-25T02:47:38.729Z,3.30
2023-02-25T02:50:13.640Z,3.30
2023-02-25T02:52:45.129Z,3.20
2023-02-25T02:55:24.726Z,3.20
2023-02-25T02:57:57.115Z,3.20
2023-02-25T03:00:27.524Z,3.10
2023-02-25T03:03:15.269Z,3.10
2023-02-25T03:05:45.192Z,3.10
2023-02-25T03:08:20.385Z,3.10
2023-02-25T03:10:46.983Z,3.10
2023-02-25T03:13:14.666Z,3.10
2023-02-25T03:15:42.122Z,3.10
2023-02-25T03:18:34.761Z,3.10
2023-02-25T03:21:06.231Z,3.10
2023-02-25T03:23:36.772Z,3.10
2023-02-25T03:26:18.243Z,3.10
2023-02-25T03:28:46.132Z,3.00
2023-02-25T03:31:21.456Z,3.10
2023-02-25T03:34:09.064Z,3.10
2023-02-25T03:36:43.509Z,3.10
2023-02-25T03:39:11.976Z,3.00
2023-02-25T03:41:44.119Z,3.10
2023-02-25T03:44:18.820Z,3.10
2023-02-25T03:46:46.894Z,3.10
2023-02-25T03:49:21.022Z,3.10
2023-02-25T03:51:49.436Z,3.10
2023-02-25T03:54:16.298Z,3.10
2023-02-25T03:56:46.073Z,3.10
2023-02-25T03:59:12.903Z,3.10
2023-02-25T04:01:40.963Z,3.10
2023-02-25T04:04:07.565Z,3.10
2023-02-25T04:06:34.246Z,3.10
2023-02-25T04:09:01.057Z,3.10
2023-02-25T04:11:27.656Z,3.20
2023-02-25T04:13:54.192Z,3.20
2023-02-25T04:16:21.149Z,3.20
2023-02-25T04:18:47.906Z,3.20
2023-02-25T04:21:28.340Z,3.20
2023-02-25T04:23:55.099Z,3.20
2023-02-25T04:26:22.053Z,3.10
2023-02-25T04:28:48.837Z,3.10
2023-02-25T04:31:15.654Z,3.20
2023-02-25T04:33:42.346Z,3.20
2023-02-25T04:36:32.395Z,3.20
2023-02-25T04:39:01.015Z,3.20
2023-02-25T04:41:33.406Z,3.30
2023-02-25T04:44:00.614Z,3.30
2023-02-25T04:46:27.417Z,3.30
2023-02-25T04:48:54.139Z,3.30
2023-02-25T04:51:20.753Z,3.30
2023-02-25T04:53:47.364Z,3.30
2023-02-25T04:56:14.404Z,3.30
2023-02-25T04:58:41.019Z,3.30
2023-02-25T05:01:09.738Z,3.30
2023-02-25T05:03:37.155Z,3.40
2023-02-25T05:06:04.827Z,3.40
2023-02-25T05:08:32.242Z,3.40
2023-02-25T05:10:59.381Z,3.50
2023-02-25T05:13:27.706Z,3.40
2023-02-25T05:16:03.933Z,3.40
2023-02-25T05:18:30.512Z,3.40
2023-02-25T05:20:57.073Z,3.30
2023-02-25T05:23:23.633Z,3.30
2023-02-25T05:25:50.212Z,3.20
2023-02-25T05:28:16.742Z,3.20
2023-02-25T05:30:43.393Z,3.20
2023-02-25T05:33:09.988Z,3.20
2023-02-25T05:35:39.833Z,3.30
2023-02-25T05:38:06.381Z,3.30
2023-02-25T05:40:32.972Z,3.20
2023-02-25T05:42:59.516Z,3.20
2023-02-25T05:45:26.435Z,3.10
2023-02-25T05:47:53.037Z,2.90
2023-02-25T05:50:19.588Z,2.90
2023-02-25T05:52:46.150Z,2.90
2023-02-25T05:55:13.056Z,2.90
2023-02-25T05:57:39.608Z,2.80
2023-02-25T06:00:06.990Z,2.80
2023-02-25T06:02:33.662Z,2.80
2023-02-25T06:05:00.185Z,2.80
2023-02-25T06:07:30.173Z,2.80
2023-02-25T06:09:56.856Z,2.80
2023-02-25T06:12:23.975Z,2.80
2023-02-25T06:14:50.551Z,2.70
2023-02-25T06:17:17.122Z,2.70
2023-02-25T06:19:43.817Z,2.70
2023-02-25T06:22:10.401Z,2.70
2023-02-25T06:24:37.079Z,2.70
2023-02-25T06:27:03.775Z,2.80
2023-02-25T06:29:30.313Z,2.80
2023-02-25T06:31:57.007Z,2.80
2023-02-25T06:34:23.633Z,2.70
2023-02-25T06:36:50.207Z,2.80
2023-02-25T06:39:16.795Z,2.80
2023-02-25T06:41:43.368Z,2.80
2023-02-25T06:44:09.936Z,2.90
2023-02-25T06:46:36.529Z,2.90
2023-02-25T06:49:03.107Z,2.90
2023-02-25T06:51:29.683Z,3.00
2023-02-25T06:53:56.232Z,2.90
2023-02-25T06:56:23.302Z,3.10
2023-02-25T06:58:50.280Z,3.00
2023-02-25T07:01:17.257Z,3.10
2023-02-25T07:03:44.241Z,3.00
2023-02-25T07:06:11.570Z,3.00
2023-02-25T07:08:38.200Z,3.00
2023-02-25T07:11:18.197Z,3.00
2023-02-25T07:13:47.095Z,3.10
2023-02-25T07:16:15.246Z,3.10
2023-02-25T07:18:42.770Z,3.20
2023-02-25T07:21:10.741Z,3.20
2023-02-25T07:23:37.355Z,3.30
2023-02-25T07:26:05.541Z,3.40
2023-02-25T07:28:32.775Z,3.50
2023-02-25T07:31:04.698Z,3.80
2023-02-25T07:33:31.620Z,3.90
2023-02-25T07:35:58.505Z,3.90
2023-02-25T07:38:25.067Z,3.90
2023-02-25T07:40:51.647Z,3.80
2023-02-25T07:43:18.248Z,3.70
2023-02-25T07:45:44.807Z,3.80
2023-02-25T07:48:11.585Z,3.90
2023-02-25T07:50:38.178Z,3.80
2023-02-25T07:53:04.745Z,3.90
2023-02-25T07:55:31.328Z,3.80
2023-02-25T07:57:58.083Z,3.90
2023-02-25T08:00:24.778Z,3.80
2023-02-25T08:02:51.438Z,3.70
2023-02-25T08:05:18.140Z,3.70
2023-02-25T08:07:44.712Z,3.70
2023-02-25T08:10:11.577Z,3.70
2023-02-25T08:12:38.141Z,3.60
2023-02-25T08:15:05.150Z,3.60
2023-02-25T08:17:34.816Z,3.60
2023-02-25T08:20:01.466Z,3.50
2023-02-25T08:22:28.025Z,3.50
2023-02-25T08:24:54.574Z,3.60
2023-02-25T08:27:21.186Z,3.50
2023-02-25T08:29:47.830Z,3.60
2023-02-25T08:32:14.519Z,3.60
2023-02-25T08:34:41.122Z,3.60
2023-02-25T08:37:09.474Z,3.60
2023-02-25T08:39:36.040Z,3.70
2023-02-25T08:42:02.807Z,3.60
2023-02-25T08:44:29.497Z,3.80
2023-02-25T08:46:56.110Z,3.70
2023-02-25T08:49:22.755Z,3.80
2023-02-25T08:51:52.186Z,3.80
2023-02-25T08:54:18.805Z,3.90
2023-02-25T08:56:45.697Z,4.00
2023-02-25T08:59:14.319Z,4.10
2023-02-25T09:01:41.488Z,4.10
2023-02-25T09:07:06.419Z,4.10
2023-02-25T09:12:19.549Z,4.20
2023-02-25T09:14:46.610Z,4.20
2023-02-25T09:17:13.368Z,4.10
2023-02-25T09:19:40.366Z,4.20
2023-02-25T09:22:08.979Z,4.20
2023-02-25T09:24:36.486Z,4.20
2023-02-25T09:27:04.064Z,4.30
2023-02-25T09:29:30.625Z,4.30
2023-02-25T09:31:57.259Z,4.30
2023-02-25T09:34:23.932Z,4.40
2023-02-25T09:36:50.517Z,4.40
2023-02-25T09:39:20.654Z,4.40
2023-02-25T09:41:50.369Z,4.40
2023-02-25T09:44:23.902Z,4.40
2023-02-25T09:47:03.268Z,4.60
2023-02-25T09:49:42.379Z,4.60
2023-02-25T09:52:26.255Z,4.70
2023-02-25T09:55:17.002Z,4.80
2023-02-25T10:01:05.951Z,4.90
2023-02-25T10:03:48.061Z,4.90
2023-02-25T10:06:41.995Z,4.90
2023-02-25T10:09:29.232Z,5.20
2023-02-25T10:12:15.822Z,5.50
2023-02-25T10:14:52.774Z,5.60
2023-02-25T10:17:22.131Z,5.60
2023-02-25T10:20:16.992Z,5.60
2023-02-25T10:22:49.124Z,5.40
2023-02-25T10:25:20.337Z,5.30
2023-02-25T10:27:54.964Z,5.10
2023-02-25T10:30:42.554Z,5.00
2023-02-25T10:33:20.699Z,5.10
2023-02-25T10:35:52.859Z,4.90
2023-02-25T10:38:19.423Z,5.00
2023-02-25T10:40:45.995Z,4.90
2023-02-25T10:43:21.395Z,4.90
2023-02-25T10:45:56.625Z,5.00
2023-02-25T10:48:25.103Z,5.00
2023-02-25T10:51:11.890Z,5.20
2023-02-25T10:53:40.473Z,5.10
2023-02-25T10:56:08.184Z,5.10
2023-02-25T10:58:44.381Z,4.90
2023-02-25T11:01:18.088Z,5.20
2023-02-25T11:04:02.821Z,5.10
2023-02-25T11:06:35.376Z,5.20
2023-02-25T11:09:23.380Z,5.20
2023-02-25T11:11:55.776Z,5.30
2023-02-25T11:14:29.071Z,5.40
2023-02-25T11:17:07.232Z,5.50
2023-02-25T11:19:41.644Z,5.50
2023-02-25T11:22:15.776Z,5.50
2023-02-25T11:24:43.139Z,5.30
2023-02-25T11:27:27.375Z,5.30
2023-02-25T11:29:59.295Z,5.10
2023-02-25T11:32:26.015Z,4.90
2023-02-25T11:34:56.491Z,4.80
2023-02-25T11:37:45.791Z,4.90
2023-02-25T11:40:23.184Z,5.00
2023-02-25T11:43:05.068Z,5.00
2023-02-25T11:45:38.779Z,5.00
2023-02-25T11:48:17.256Z,4.90
2023-02-25T11:51:22.349Z,4.90
2023-02-25T11:54:19.459Z,4.80
2023-02-25T11:57:28.356Z,4.80
2023-02-25T12:00:22.872Z,4.80
2023-02-25T12:03:20.098Z,5.30
2023-02-25T12:05:58.781Z,5.80
2023-02-25T12:08:43.995Z,6.20
2023-02-25T12:11:29.342Z,6.60
2023-02-25T12:14:28.224Z,6.90
2023-02-25T12:17:06.970Z,6.90
2023-02-25T12:19:36.308Z,6.60
2023-02-25T12:22:40.381Z,6.60
2023-02-25T12:25:27.712Z,6.60
2023-02-25T12:28:09.905Z,6.60
2023-02-25T12:31:13.985Z,6.40
2023-02-25T12:34:02.258Z,6.20
2023-02-25T12:36:53.166Z,6.40
2023-02-25T12:39:30.024Z,6.40
2023-02-25T12:42:40.921Z,6.30
2023-02-25T12:45:45.173Z,6.10
2023-02-25T12:48:49.141Z,6.00
2023-02-25T12:51:29.700Z,6.00
2023-02-25T12:54:01.787Z,6.00
2023-02-25T12:57:02.525Z,5.90
2023-02-25T12:59:41.525Z,5.90
2023-02-25T13:02:33.034Z,6.00
2023-02-25T13:05:16.012Z,6.20
2023-02-25T13:08:21.840Z,6.10
2023-02-25T13:11:00.834Z,6.10
2023-02-25T13:13:58.421Z,5.90
2023-02-25T13:16:53.589Z,6.00
2023-02-25T13:19:26.487Z,6.00
2023-02-25T13:22:25.184Z,6.00
2023-02-25T13:25:13.653Z,6.10
2023-02-25T13:28:18.640Z,6.20
2023-02-25T13:31:17.153Z,6.10
2023-02-25T13:33:52.771Z,6.10
2023-02-25T13:36:37.129Z,5.90
2023-02-25T13:39:28.737Z,6.00
2023-02-25T13:42:12.374Z,5.90
2023-02-25T13:44:42.049Z,5.90
2023-02-25T13:47:17.550Z,5.80
2023-02-25T13:50:08.434Z,5.80
2023-02-25T13:52:46.496Z,5.60
2023-02-25T13:55:44.119Z,5.70
2023-02-25T13:58:26.038Z,5.50
2023-02-25T14:01:26.781Z,5.30
2023-02-25T14:04:31.253Z,5.40
2023-02-25T14:07:03.646Z,5.40
2023-02-25T14:09:50.616Z,5.40
2023-02-25T14:12:47.118Z,5.40
2023-02-25T14:15:24.391Z,5.30
2023-02-25T14:18:15.629Z,5.30
2023-02-25T14:21:06.192Z,5.20
2023-02-25T14:23:55.614Z,5.30
2023-02-25T14:26:40.682Z,5.30
2023-02-25T14:29:35.281Z,5.10
2023-02-25T14:32:04.916Z,5.10
2023-02-25T14:35:04.804Z,5.10
2023-02-25T14:38:09.080Z,5.10
2023-02-25T14:40:54.365Z,5.20
2023-02-25T14:43:31.281Z,5.10
2023-02-25T14:46:35.108Z,5.20
2023-02-25T14:49:19.677Z,5.10
2023-02-25T14:52:11.863Z,5.10
2023-02-25T14:55:18.321Z,5.10
2023-02-25T14:58:06.030Z,5.10
2023-02-25T15:00:53.902Z,5.20
2023-02-25T15:03:51.129Z,5.20
2023-02-25T15:06:26.529Z,5.10
2023-02-25T15:09:11.752Z,5.20
2023-02-25T15:11:59.298Z,5.00
2023-02-25T15:14:28.648Z,5.00
2023-02-25T15:17:04.409Z,5.00
2023-02-25T15:20:05.558Z,5.00
2023-02-25T15:22:32.603Z,4.80
2023-02-25T15:25:20.795Z,4.80
2023-02-25T15:27:54.428Z,4.80
2023-02-25T15:30:26.016Z,4.90
2023-02-25T15:33:14.464Z,4.80
2023-02-25T15:35:42.109Z,4.70
2023-02-25T15:38:12.644Z,4.70
2023-02-25T15:40:47.258Z,4.70
2023-02-25T15:43:13.760Z,4.70
2023-02-25T15:45:46.330Z,4.70
2023-02-25T15:48:12.885Z,4.90
2023-02-25T15:50:42.202Z,4.80
2023-02-25T15:53:34.463Z,4.90
2023-02-25T15:56:04.037Z,4.70
2023-02-25T15:58:30.589Z,4.80
2023-02-25T16:00:58.169Z,4.80
2023-02-25T16:03:32.058Z,4.90
2023-02-25T16:06:04.367Z,5.00
2023-02-25T16:08:54.056Z,4.90
2023-02-25T16:11:26.566Z,4.90
2023-02-25T16:13:53.863Z,4.90
2023-02-25T16:16:22.000Z,4.90
2023-02-25T16:18:51.742Z,4.80
2023-02-25T16:21:24.237Z,4.90
2023-02-25T16:23:51.108Z,4.80
2023-02-25T16:26:37.158Z,4.70
2023-02-25T16:29:27.289Z,4.60
2023-02-25T16:32:16.134Z,4.50
2023-02-25T16:34:51.732Z,4.50
2023-02-25T16:37:31.868Z,4.50
2023-02-25T16:39:58.586Z,4.40
2023-02-25T16:42:25.522Z,4.40
2023-02-25T16:45:04.740Z,4.40
2023-02-25T16:47:34.872Z,4.40
2023-02-25T16:50:09.158Z,4.40
2023-02-25T16:52:40.603Z,4.30
2023-02-25T16:55:11.453Z,4.30
2023-02-25T16:57:38.953Z,4.20
2023-02-25T17:00:20.386Z,4.20
2023-02-25T17:02:50.222Z,4.20
2023-02-25T17:05:35.245Z,4.20
2023-02-25T17:08:13.071Z,4.30
2023-02-25T17:10:44.407Z,4.20
2023-02-25T17:13:17.289Z,4.20
2023-02-25T17:15:43.961Z,3.80
2023-02-25T17:18:27.611Z,3.50
2023-02-25T17:21:16.678Z,3.30
2023-02-25T17:23:44.373Z,3.20
2023-02-25T17:26:18.225Z,3.00
2023-02-25T17:28:47.121Z,3.10
2023-02-25T17:31:16.485Z,2.90
2023-02-25T17:33:47.639Z,2.70
2023-02-25T17:36:16.123Z,2.70
2023-02-25T17:38:46.378Z,2.60
2023-02-25T17:41:17.899Z,2.60
2023-02-25T17:43:45.268Z,2.40
2023-02-25T17:46:33.586Z,2.30
2023-02-25T17:49:06.644Z,2.20
2023-02-25T17:51:36.498Z,2.10
2023-02-25T17:54:07.318Z,2.10
2023-02-25T17:56:35.844Z,2.20
2023-02-25T17:59:13.468Z,2.20
2023-02-25T18:01:51.750Z,2.20
2023-02-25T18:04:34.809Z,2.30
2023-02-25T18:07:28.024Z,2.20
2023-02-25T18:09:54.685Z,2.30
2023-02-25T18:12:34.079Z,2.30
2023-02-25T18:15:02.839Z,2.30
2023-02-25T18:17:34.620Z,2.30
2023-02-25T18:20:05.663Z,2.30
2023-02-25T18:22:40.355Z,2.20
2023-02-25T18:25:34.721Z,2.20
2023-02-25T18:28:02.540Z,2.20
2023-02-25T18:30:31.342Z,2.20
2023-02-25T18:32:59.329Z,2.20
2023-02-25T18:35:28.085Z,2.10
2023-02-25T18:37:56.772Z,2.10
2023-02-25T18:40:25.436Z,2.10
2023-02-25T18:42:52.018Z,2.00
2023-02-25T18:45:21.688Z,2.00
2023-02-25T18:47:48.623Z,2.10
2023-02-25T18:50:15.709Z,2.10
2023-02-25T18:52:42.720Z,2.00
2023-02-25T18:55:16.697Z,2.10
2023-02-25T18:57:43.599Z,2.00
2023-02-25T19:00:11.386Z,2.00
2023-02-25T19:02:54.722Z,2.00
2023-02-25T19:05:23.152Z,2.00
2023-02-25T19:07:50.112Z,2.00
2023-02-25T19:10:24.556Z,2.00
2023-02-25T19:12:53.593Z,2.00
2023-02-25T19:15:21.425Z,2.00
2023-02-25T19:17:49.035Z,2.00
2023-02-25T19:20:18.067Z,2.00
2023-02-25T19:22:47.257Z,2.10
2023-02-25T19:25:24.731Z,2.00
2023-02-25T19:27:52.696Z,2.00
2023-02-25T19:30:23.210Z,2.00
2023-02-25T19:32:49.764Z,2.00
2023-02-25T19:35:16.455Z,2.00
2023-02-25T19:37:43.832Z,2.00
2023-02-25T19:40:13.548Z,2.00
2023-02-25T19:42:41.786Z,1.90
2023-02-25T19:45:10.623Z,2.00
2023-02-25T19:47:37.493Z,1.90
2023-02-25T19:50:05.483Z,1.90
2023-02-25T19:52:32.613Z,2.00
2023-02-25T19:55:00.109Z,1.90
2023-02-25T19:57:26.682Z,2.00
2023-02-25T19:59:53.232Z,2.20
2023-02-25T20:02:19.787Z,1.90
2023-02-25T20:04:46.393Z,1.90
2023-02-25T20:07:13.035Z,1.80
2023-02-25T20:09:39.591Z,1.80
2023-02-25T20:12:06.521Z,1.70
2023-02-25T20:14:33.232Z,1.70
2023-02-25T20:17:00.539Z,1.70
2023-02-25T20:19:28.360Z,1.70
2023-02-25T20:21:54.918Z,1.70
2023-02-25T20:24:21.630Z,1.70
2023-02-25T20:26:48.378Z,1.70
2023-02-25T20:29:15.045Z,1.70
2023-02-25T20:31:42.582Z,1.70
2023-02-25T20:34:17.769Z,1.60
2023-02-25T20:37:13.669Z,1.60
2023-02-25T20:39:53.659Z,1.60
2023-02-25T20:42:24.164Z,1.70
2023-02-25T20:44:52.493Z,1.70
2023-02-25T20:47:31.223Z,1.70
2023-02-25T20:49:58.726Z,1.70
2023-02-25T20:52:26.019Z,1.70
2023-02-25T20:54:53.704Z,1.60
2023-02-25T20:57:22.952Z,1.50
2023-02-25T20:59:49.630Z,1.50
2023-02-25T21:02:17.069Z,1.60
2023-02-25T21:04:44.460Z,1.60
2023-02-25T21:07:11.275Z,1.60
2023-02-25T21:09:37.878Z,1.60
2023-02-25T21:12:05.408Z,1.60
2023-02-25T21:14:32.022Z,1.60
2023-02-25T21:16:58.754Z,1.50
2023-02-25T21:19:26.896Z,1.60
2023-02-25T21:21:53.839Z,1.40
2023-02-25T21:24:21.288Z,1.50
2023-02-25T21:26:48.024Z,1.40
2023-02-25T21:29:15.103Z,1.40
2023-02-25T21:31:42.318Z,1.30
2023-02-25T21:34:09.772Z,1.30
2023-02-25T21:36:36.328Z,1.30
2023-02-25T21:39:03.972Z,1.20
2023-02-25T21:41:30.595Z,1.10
2023-02-25T21:43:57.238Z,1.10
2023-02-25T21:46:24.653Z,1.10
2023-02-25T21:48:51.378Z,1.00
2023-02-25T21:51:21.679Z,1.10
2023-02-25T21:53:48.514Z,1.00
2023-02-25T21:56:17.514Z,1.00
2023-02-25T21:58:44.714Z,1.00
2023-02-25T22:01:19.783Z,0.90
2023-02-25T22:03:46.759Z,1.00
2023-02-25T22:06:14.394Z,1.10
2023-02-25T22:08:42.281Z,1.10
2023-02-25T22:11:17.378Z,1.00
2023-02-25T22:13:44.005Z,0.90
2023-02-25T22:16:11.149Z,1.10
2023-02-25T22:18:38.397Z,1.10
2023-02-25T22:21:10.594Z,1.10
2023-02-25T22:23:37.823Z,1.00
2023-02-25T22:26:07.192Z,1.00
2023-02-25T22:28:34.844Z,1.00
2023-02-25T22:31:01.925Z,1.10
2023-02-25T22:33:30.392Z,1.10
2023-02-25T22:36:01.949Z,1.10
2023-02-25T22:38:33.690Z,1.10
2023-02-25T22:41:00.884Z,1.10
2023-02-25T22:43:28.931Z,1.10
2023-02-25T22:46:13.788Z,1.10
2023-02-25T22:48:42.239Z,1.00
2023-02-25T22:51:09.633Z,1.00
2023-02-25T22:53:37.473Z,1.10
2023-02-25T22:56:06.944Z,1.20
2023-02-25T22:58:33.541Z,1.10
2023-02-25T23:01:00.201Z,1.20
2023-02-25T23:03:27.120Z,1.10
2023-02-25T23:05:54.831Z,1.10
2023-02-25T23:08:22.298Z,1.10
2023-02-25T23:10:49.282Z,1.10
2023-02-25T23:13:15.857Z,0.90
2023-02-25T23:15:42.800Z,0.90
2023-02-25T23:18:09.463Z,1.00
2023-02-25T23:20:38.034Z,1.00
2023-02-25T23:23:06.630Z,0.90
2023-02-25T23:25:35.196Z,1.00
2023-02-25T23:28:02.694Z,1.00
2023-02-25T23:30:29.310Z,0.90
2023-02-25T23:32:57.474Z,1.00
2023-02-25T23:35:24.525Z,0.80
2023-02-25T23:37:51.486Z,0.60
2023-02-25T23:40:18.499Z,0.70
2023-02-25T23:42:46.235Z,0.70
2023-02-25T23:45:14.179Z,0.60
2023-02-25T23:47:41.568Z,0.80
2023-02-25T23:50:13.348Z,0.60
2023-02-25T23:52:39.898Z,0.70
2023-02-25T23:55:06.681Z,0.60
2023-02-25T23:57:34.065Z,0.60
